Startpagina
METAR-TAF:

METAR-TAF

Vliegvelden :

Dübendorf, Zwitserland

breedte: 47-23-55N, lengte: 8-38-53E, hoogte: 448 m

Actueel weer

Dit bericht is 18 minuten geleden gemaakt, om 20:50 UTC
Weinig wind
Temperatuur 17°C
Vochtigheid 82%
Druk 1021 hPa
Zicht 10 km of meer

METAR: LSMD 182050Z AUTO 00000KT 9999NDV NCD 17/14 Q1021 RMK

Tijdstip: 23:08 (21:08 UTC)


TAF: ontbreekt

Waarnemingen en weersverwachtingen van meer dan 4000 vliegvelden (METAR en TAF).

De beschikbare stations zijn de gele en rode punten op de kaart.

Ga met uw muis naar het station om de naam te zien.

Klik dan om waarnemingen en weersverwachtingen te zien.

kaart wijzigen: klik op de groene knoppen met een zwart kruis om in te zoomen, op de groene knop met een streepje om uit te zoomen of op de groene pijlen voor aangrenzende kaarten.


METAR-TAF: